Time;durP1;ratioP1;P1;durP2;ratioP2;P2;SDS_P1;SDS_P2;PMS_P1;PMS_P2;Temp;Humidity;BMP_temperature;BMP_pressure;BME280_temperature;BME280_humidity;BME280_pressure;Samples;Min_cycle;Max_cycle;Signal;HPM_P1;HPM_P2
2023/07/20 00:00:53;;;;;;;0.57;0.47;;;15.40;99.90;;;;;;5014053;28;20049;-72
2023/07/20 00:03:24;;;;;;;0.45;0.45;;;15.40;99.90;;;;;;5012558;28;20504;-72
2023/07/20 00:05:51;;;;;;;0.43;0.43;;;15.40;99.90;;;;;;5036312;28;20484;-72
2023/07/20 00:08:18;;;;;;;0.40;0.40;;;15.40;99.90;;;;;;5011392;28;20046;-72
2023/07/20 00:10:44;;;;;;;0.47;0.47;;;15.30;99.90;;;;;;5046233;28;20120;-72
2023/07/20 00:13:11;;;;;;;0.30;0.30;;;15.50;99.90;;;;;;5033678;28;20186;-73
2023/07/20 00:15:37;;;;;;;0.50;0.50;;;15.40;99.90;;;;;;5044317;28;20522;-73
2023/07/20 00:18:04;;;;;;;0.40;0.40;;;15.50;99.90;;;;;;5041339;28;20044;-73
2023/07/20 00:20:30;;;;;;;0.40;0.40;;;15.20;99.90;;;;;;5018663;28;20519;-74
2023/07/20 00:22:57;;;;;;;0.30;0.30;;;15.20;99.90;;;;;;5024877;28;20033;-73
2023/07/20 00:25:23;;;;;;;0.47;0.47;;;15.30;99.90;;;;;;5033962;28;20038;-72
2023/07/20 00:28:14;;;;;;;0.40;0.40;;;15.20;99.90;;;;;;5035885;28;20037;-72
2023/07/20 00:30:40;;;;;;;0.40;0.40;;;15.20;99.90;;;;;;5034173;28;20076;-72
2023/07/20 00:33:11;;;;;;;0.32;0.32;;;15.30;99.90;;;;;;5039976;28;20048;-72
2023/07/20 00:36:23;;;;;;;0.38;0.38;;;15.50;99.90;;;;;;5012658;28;20076;-72
2023/07/20 00:38:49;;;;;;;0.30;0.30;;;15.40;99.90;;;;;;5044632;28;20092;-72
2023/07/20 00:41:15;;;;;;;0.50;0.50;;;15.50;99.90;;;;;;5029970;28;20048;-72
2023/07/20 00:43:40;;;;;;;0.40;0.40;;;15.40;99.90;;;;;;5009985;28;20128;-72
2023/07/20 00:46:07;;;;;;;0.40;0.40;;;15.40;99.90;;;;;;5026543;28;20060;-72
2023/07/20 00:48:33;;;;;;;0.40;0.40;;;15.20;99.90;;;;;;5026873;28;20084;-73
2023/07/20 00:51:01;;;;;;;0.30;0.30;;;15.40;99.90;;;;;;5012047;28;20421;-73
2023/07/20 00:53:27;;;;;;;0.65;0.52;;;15.10;99.90;;;;;;5010427;28;20374;-73
2023/07/20 00:55:53;;;;;;;0.50;0.50;;;15.10;99.90;;;;;;5026939;28;20095;-73
2023/07/20 00:58:18;;;;;;;0.40;0.40;;;15.10;99.90;;;;;;5028831;28;20033;-73
2023/07/20 01:00:44;;;;;;;0.45;0.45;;;15.10;99.90;;;;;;5010122;28;20402;-73
2023/07/20 01:03:10;;;;;;;0.47;0.47;;;15.30;99.90;;;;;;5026653;28;20038;-73
2023/07/20 01:06:22;;;;;;;0.40;0.40;;;15.20;99.90;;;;;;5025026;28;20068;-72
2023/07/20 01:09:15;;;;;;;0.40;0.40;;;15.00;99.90;;;;;;4949623;28;20126;-73
2023/07/20 01:11:52;;;;;;;0.40;0.40;;;15.10;99.90;;;;;;5025930;28;20056;-73
2023/07/20 01:14:20;;;;;;;0.40;0.40;;;15.00;99.90;;;;;;5011965;28;20116;-73
2023/07/20 01:16:45;;;;;;;0.50;0.50;;;15.00;99.90;;;;;;5009483;28;20284;-73
2023/07/20 01:19:14;;;;;;;0.40;0.40;;;15.20;99.90;;;;;;5023564;28;20056;-73
2023/07/20 01:22:03;;;;;;;0.40;0.40;;;15.00;99.90;;;;;;5027275;28;20050;-73
2023/07/20 01:25:11;;;;;;;0.30;0.30;;;15.20;99.90;;;;;;5023087;28;20124;-74
2023/07/20 01:28:03;;;;;;;0.30;0.30;;;14.90;99.90;;;;;;5021875;28;20045;-73
2023/07/20 01:30:55;;;;;;;0.73;0.70;;;15.00;99.90;;;;;;4996189;28;20049;-73
2023/07/20 01:33:23;;;;;;;0.35;0.35;;;14.90;99.90;;;;;;5022648;28;20870;-73
2023/07/20 01:35:53;;;;;;;;;;;14.80;99.90;;;;;;5027119;28;20049;-73
2023/07/20 01:38:19;;;;;;;0.40;0.40;;;14.80;99.90;;;;;;5027789;28;20003;-73
2023/07/20 01:40:45;;;;;;;0.40;0.40;;;14.90;99.90;;;;;;5028103;28;20037;-73
2023/07/20 01:43:12;;;;;;;0.30;0.30;;;14.80;99.90;;;;;;5035714;28;20048;-73
2023/07/20 01:45:37;;;;;;;0.30;0.30;;;14.90;99.90;;;;;;5027096;28;20057;-73
2023/07/20 01:48:04;;;;;;;0.43;0.43;;;14.90;99.90;;;;;;5028403;28;20056;-73
2023/07/20 01:50:29;;;;;;;0.50;0.50;;;14.70;99.90;;;;;;5009506;28;20448;-73
2023/07/20 01:52:56;;;;;;;0.40;0.40;;;14.80;99.90;;;;;;5024980;28;20068;-73
2023/07/20 01:55:22;;;;;;;0.40;0.40;;;14.60;99.90;;;;;;5042767;28;20041;-73
2023/07/20 01:57:47;;;;;;;0.40;0.40;;;14.50;99.90;;;;;;5021713;28;20048;-73
2023/07/20 02:00:13;;;;;;;0.45;0.45;;;14.50;99.90;;;;;;5017495;28;20113;-73
2023/07/20 02:02:39;;;;;;;0.32;0.32;;;14.50;99.90;;;;;;5027036;28;20053;-73
2023/07/20 02:05:05;;;;;;;0.40;0.40;;;14.60;99.90;;;;;;5027104;28;20068;-73
2023/07/20 02:07:31;;;;;;;0.40;0.40;;;14.40;99.90;;;;;;5022294;28;20428;-73
2023/07/20 02:09:56;;;;;;;0.30;0.30;;;14.30;99.90;;;;;;5021053;28;20037;-73
2023/07/20 02:12:22;;;;;;;0.30;0.30;;;14.30;99.90;;;;;;5022113;28;20048;-73
2023/07/20 02:14:50;;;;;;;0.40;0.40;;;14.20;99.90;;;;;;5021036;28;20576;-73
2023/07/20 02:17:15;;;;;;;0.40;0.40;;;14.20;99.90;;;;;;5034906;28;20041;-73
2023/07/20 02:19:41;;;;;;;0.30;0.30;;;14.20;99.90;;;;;;5021574;28;20038;-73
2023/07/20 02:22:07;;;;;;;0.40;0.40;;;14.10;99.90;;;;;;5015654;28;20507;-73
2023/07/20 02:24:33;;;;;;;0.30;0.30;;;13.80;99.90;;;;;;5028128;28;20655;-73
2023/07/20 02:26:59;;;;;;;0.75;0.75;;;13.90;99.90;;;;;;5028223;28;20041;-72
2023/07/20 02:29:25;;;;;;;0.40;0.40;;;13.90;99.90;;;;;;5027431;28;20500;-74
2023/07/20 02:32:06;;;;;;;0.30;0.30;;;13.70;99.90;;;;;;5008167;28;20042;-73
2023/07/20 02:38:04;;;;;;;0.32;0.32;;;13.80;99.90;;;;;;5023885;28;20057;-74
2023/07/20 02:40:29;;;;;;;0.40;0.40;;;13.50;99.90;;;;;;5037841;28;20049;-75
2023/07/20 02:42:55;;;;;;;0.40;0.40;;;13.40;99.90;;;;;;5026816;28;20037;-76
2023/07/20 02:45:21;;;;;;;0.38;0.38;;;13.40;99.90;;;;;;5009339;28;20100;-74
2023/07/20 02:47:46;;;;;;;0.40;0.40;;;13.50;99.90;;;;;;5005496;28;20037;-74
2023/07/20 02:50:14;;;;;;;0.40;0.40;;;13.40;99.90;;;;;;5015633;28;20037;-74
2023/07/20 02:52:39;;;;;;;0.30;0.30;;;13.40;99.90;;;;;;5028183;28;20086;-74
2023/07/20 02:55:05;;;;;;;0.32;0.32;;;13.30;99.90;;;;;;5026063;28;20056;-74
2023/07/20 02:57:31;;;;;;;0.30;0.30;;;13.10;99.90;;;;;;5023469;28;20072;-74
2023/07/20 02:59:56;;;;;;;0.20;0.20;;;13.10;99.90;;;;;;5009646;28;20037;-74
2023/07/20 03:02:22;;;;;;;0.40;0.40;;;13.10;99.90;;;;;;5026477;28;20096;-74
2023/07/20 03:04:48;;;;;;;0.50;0.50;;;13.10;99.90;;;;;;5020488;28;20038;-74
2023/07/20 03:07:14;;;;;;;0.30;0.30;;;13.00;99.90;;;;;;5037931;28;20072;-74
2023/07/20 03:09:40;;;;;;;0.45;0.45;;;13.10;99.90;;;;;;5028487;28;20418;-74
2023/07/20 03:12:07;;;;;;;0.40;0.40;;;12.90;99.90;;;;;;5030376;28;20037;-74
2023/07/20 03:14:32;;;;;;;0.40;0.40;;;12.90;99.90;;;;;;5034827;28;20037;-74
2023/07/20 03:16:58;;;;;;;0.63;0.63;;;13.00;99.90;;;;;;5021472;28;20029;-74
2023/07/20 03:19:24;;;;;;;0.50;0.50;;;12.90;99.90;;;;;;5028085;28;20575;-74
2023/07/20 03:25:30;;;;;;;0.32;0.32;;;13.00;99.90;;;;;;5521845;22;20177;-74
2023/07/20 03:27:56;;;;;;;0.90;0.90;;;12.70;99.90;;;;;;5069681;28;20044;-75
2023/07/20 03:30:23;;;;;;;0.68;0.68;;;12.60;99.90;;;;;;5050145;28;20052;-73
2023/07/20 03:32:48;;;;;;;0.55;0.55;;;12.80;99.90;;;;;;5052624;28;20499;-73
2023/07/20 03:35:15;;;;;;;0.40;0.40;;;12.70;99.90;;;;;;5065136;28;20107;-73
2023/07/20 03:37:42;;;;;;;0.35;0.35;;;12.60;99.90;;;;;;5066061;28;21062;-75
2023/07/20 03:40:08;;;;;;;0.30;0.30;;;12.40;99.90;;;;;;5066685;28;20491;-74
2023/07/20 03:42:34;;;;;;;0.40;0.40;;;12.40;99.90;;;;;;5048742;28;20473;-75
2023/07/20 03:44:59;;;;;;;0.30;0.30;;;12.40;99.90;;;;;;5069367;28;20072;-75
2023/07/20 03:47:26;;;;;;;0.52;0.52;;;12.50;99.90;;;;;;5058963;28;20091;-75
2023/07/20 03:49:51;;;;;;;0.52;0.40;;;12.30;99.90;;;;;;5069873;28;20036;-74
2023/07/20 03:52:17;;;;;;;0.52;0.52;;;12.40;99.90;;;;;;5065436;28;20082;-74
2023/07/20 03:54:44;;;;;;;0.40;0.40;;;12.30;99.90;;;;;;5059824;28;20226;-74
2023/07/20 03:57:09;;;;;;;0.35;0.35;;;12.40;99.90;;;;;;5058393;28;20036;-73
2023/07/20 03:59:36;;;;;;;0.45;0.45;;;12.40;99.90;;;;;;5068090;28;20033;-73
2023/07/20 04:02:02;;;;;;;0.40;0.40;;;12.40;99.90;;;;;;5047028;28;20079;-73
2023/07/20 04:04:28;;;;;;;0.40;0.40;;;12.30;99.90;;;;;;5057618;28;20053;-73
2023/07/20 04:06:53;;;;;;;0.43;0.43;;;12.40;99.90;;;;;;5050312;28;20048;-73
2023/07/20 04:09:19;;;;;;;0.40;0.40;;;12.30;99.90;;;;;;5059587;28;20456;-72
2023/07/20 04:11:45;;;;;;;1.00;1.00;;;12.40;99.90;;;;;;5060871;28;20094;-72
2023/07/20 04:14:10;;;;;;;0.60;0.60;;;12.40;99.90;;;;;;5047683;28;20067;-73
2023/07/20 04:16:37;;;;;;;0.30;0.30;;;12.50;99.90;;;;;;5038941;28;20060;-73
2023/07/20 04:19:02;;;;;;;0.40;0.40;;;12.40;99.90;;;;;;5059257;28;20032;-73
2023/07/20 04:21:28;;;;;;;0.60;0.60;;;12.70;99.90;;;;;;5041477;28;20040;-73
2023/07/20 04:23:54;;;;;;;0.40;0.40;;;12.70;99.90;;;;;;5051490;28;20072;-73
2023/07/20 04:26:20;;;;;;;0.60;0.60;;;12.70;99.90;;;;;;5057712;28;20137;-73
2023/07/20 04:28:46;;;;;;;0.40;0.40;;;12.70;99.90;;;;;;5040916;28;20468;-73
2023/07/20 04:31:15;;;;;;;0.50;0.50;;;12.60;99.90;;;;;;5056526;28;20040;-75
2023/07/20 04:33:42;;;;;;;0.50;0.50;;;12.60;99.90;;;;;;5058293;28;20072;-73
2023/07/20 04:36:08;;;;;;;0.60;0.60;;;12.70;99.90;;;;;;5059253;28;20029;-74
2023/07/20 04:38:34;;;;;;;0.38;0.38;;;12.70;99.90;;;;;;5056630;28;20045;-73
2023/07/20 04:41:00;;;;;;;1.65;0.63;;;12.60;99.90;;;;;;5057605;28;20101;-73
2023/07/20 04:43:26;;;;;;;0.30;0.30;;;12.90;99.90;;;;;;5046888;28;20041;-73
2023/07/20 04:45:52;;;;;;;0.30;0.30;;;12.90;99.90;;;;;;5044273;28;20226;-73
2023/07/20 04:48:18;;;;;;;0.40;0.40;;;13.10;99.90;;;;;;5053350;28;20513;-73
2023/07/20 04:50:45;;;;;;;0.40;0.40;;;12.90;99.90;;;;;;5051008;28;20085;-73
2023/07/20 04:53:14;;;;;;;0.37;0.37;;;13.00;99.90;;;;;;5058922;28;20090;-73
2023/07/20 04:55:40;;;;;;;0.40;0.40;;;13.00;99.90;;;;;;5057251;28;20036;-73
2023/07/20 04:58:06;;;;;;;0.47;0.47;;;12.90;99.90;;;;;;5049003;28;20039;-73
2023/07/20 05:00:37;;;;;;;0.50;0.50;;;13.10;99.90;;;;;;5040870;28;20044;-73
2023/07/20 05:03:05;;;;;;;0.80;0.60;;;13.10;99.90;;;;;;5056573;28;20037;-73
2023/07/20 05:05:31;;;;;;;0.40;0.40;;;13.10;99.90;;;;;;5050230;28;20040;-73
2023/07/20 05:07:57;;;;;;;0.40;0.40;;;12.90;99.90;;;;;;5044653;28;20072;-73
2023/07/20 05:10:23;;;;;;;0.43;0.43;;;12.90;99.90;;;;;;5061449;28;20068;-73
2023/07/20 05:12:49;;;;;;;0.77;0.77;;;13.20;99.90;;;;;;5053226;28;20048;-73
2023/07/20 05:15:15;;;;;;;0.30;0.30;;;13.20;99.90;;;;;;5054683;28;20316;-73
2023/07/20 05:17:41;;;;;;;0.38;0.38;;;13.10;99.90;;;;;;5065768;28;20044;-73
2023/07/20 05:20:09;;;;;;;0.40;0.40;;;13.00;99.90;;;;;;5059161;28;20082;-74
2023/07/20 05:22:39;;;;;;;0.40;0.40;;;13.00;99.90;;;;;;5041475;28;20044;-74
2023/07/20 05:25:09;;;;;;;0.30;0.30;;;13.10;99.90;;;;;;5040110;28;20063;-75
2023/07/20 05:27:38;;;;;;;0.40;0.40;;;13.10;99.90;;;;;;5051705;28;20052;-73
2023/07/20 05:30:07;;;;;;;0.50;0.50;;;13.20;99.90;;;;;;5055304;28;20051;-72
2023/07/20 05:32:33;;;;;;;0.40;0.40;;;13.10;99.90;;;;;;5056761;28;20494;-75
2023/07/20 05:34:58;;;;;;;0.47;0.47;;;13.40;99.90;;;;;;5055921;28;20074;-73
2023/07/20 05:37:24;;;;;;;0.38;0.38;;;13.20;99.90;;;;;;5054714;28;20116;-73
2023/07/20 05:39:50;;;;;;;0.40;0.40;;;13.40;99.90;;;;;;5052963;28;20048;-73
2023/07/20 05:42:16;;;;;;;0.40;0.40;;;13.30;99.90;;;;;;5060935;28;21137;-73
2023/07/20 05:44:41;;;;;;;0.40;0.40;;;13.50;99.90;;;;;;5054301;28;20039;-74
2023/07/20 05:47:07;;;;;;;0.30;0.30;;;13.40;99.90;;;;;;5050319;28;20059;-73
2023/07/20 05:49:34;;;;;;;0.40;0.40;;;13.50;99.90;;;;;;5063485;28;20071;-75
2023/07/20 05:52:00;;;;;;;0.50;0.50;;;13.50;99.90;;;;;;5066162;28;20121;-73
2023/07/20 05:54:26;;;;;;;0.40;0.40;;;13.50;99.90;;;;;;5058354;28;20036;-73
2023/07/20 05:56:52;;;;;;;0.40;0.40;;;13.60;99.90;;;;;;5060743;28;20427;-74
2023/07/20 05:59:19;;;;;;;0.50;0.50;;;13.60;99.90;;;;;;5066029;28;20514;-73
2023/07/20 06:01:46;;;;;;;0.40;0.40;;;13.60;99.90;;;;;;5057423;28;20033;-73
2023/07/20 06:04:12;;;;;;;0.30;0.30;;;13.70;99.90;;;;;;5040392;28;20041;-73
2023/07/20 06:06:41;;;;;;;0.40;0.40;;;13.90;99.90;;;;;;5051827;28;20071;-73
2023/07/20 06:09:11;;;;;;;0.60;0.60;;;14.20;99.90;;;;;;5055767;28;20033;-73
2023/07/20 06:11:38;;;;;;;0.50;0.50;;;14.10;99.90;;;;;;5050273;28;20047;-73
2023/07/20 06:14:04;;;;;;;0.40;0.40;;;14.30;99.90;;;;;;5056431;28;20553;-73
2023/07/20 06:16:30;;;;;;;0.45;0.45;;;14.30;99.90;;;;;;5061678;28;20123;-74
2023/07/20 06:18:56;;;;;;;0.40;0.40;;;14.40;99.90;;;;;;5059108;28;20063;-74
2023/07/20 06:21:21;;;;;;;0.30;0.30;;;14.70;99.90;;;;;;5066055;28;20066;-73
2023/07/20 06:23:47;;;;;;;0.40;0.40;;;14.80;99.90;;;;;;5043706;28;20044;-73
2023/07/20 06:26:13;;;;;;;0.38;0.38;;;14.70;99.90;;;;;;5047992;28;20135;-73
2023/07/20 06:28:38;;;;;;;0.35;0.35;;;14.80;99.90;;;;;;5060235;28;20109;-73
2023/07/20 06:31:04;;;;;;;0.50;0.50;;;15.00;99.90;;;;;;5064768;28;20044;-71
2023/07/20 06:33:30;;;;;;;0.30;0.30;;;15.00;99.90;;;;;;5066903;28;20043;-73
2023/07/20 06:35:56;;;;;;;0.30;0.30;;;15.20;99.90;;;;;;5049768;28;20717;-74
2023/07/20 06:38:23;;;;;;;0.50;0.50;;;15.30;99.90;;;;;;5062010;28;20115;-73
2023/07/20 06:40:52;;;;;;;0.43;0.43;;;15.50;99.90;;;;;;5054626;28;20045;-73
2023/07/20 06:43:18;;;;;;;0.50;0.50;;;15.30;99.90;;;;;;5059203;28;20041;-73
2023/07/20 06:45:44;;;;;;;0.40;0.40;;;15.60;99.90;;;;;;5045927;28;20071;-73
2023/07/20 06:48:09;;;;;;;0.30;0.30;;;15.50;99.90;;;;;;5066788;28;20384;-74
2023/07/20 06:50:35;;;;;;;0.40;0.40;;;15.60;99.90;;;;;;5048309;28;20048;-73
2023/07/20 06:53:03;;;;;;;0.40;0.40;;;16.00;99.90;;;;;;5052584;28;20067;-73
2023/07/20 06:55:29;;;;;;;;;;;16.10;99.90;;;;;;5063779;28;20045;-74
2023/07/20 06:57:55;;;;;;;0.40;0.40;;;16.60;99.90;;;;;;5057874;28;19920;-74
2023/07/20 07:00:21;;;;;;;0.50;0.50;;;16.70;99.90;;;;;;5067801;28;20036;-74
2023/07/20 07:02:46;;;;;;;0.40;0.40;;;16.70;99.90;;;;;;5048975;28;20033;-73
2023/07/20 07:05:15;;;;;;;1.25;0.60;;;16.80;99.90;;;;;;5054257;28;20041;-74
2023/07/20 07:07:41;;;;;;;0.30;0.30;;;17.30;99.90;;;;;;5060312;28;20048;-73
2023/07/20 07:10:08;;;;;;;0.30;0.30;;;17.30;99.90;;;;;;5050604;28;20037;-74
2023/07/20 07:12:34;;;;;;;0.50;0.50;;;17.50;99.90;;;;;;5061341;28;20493;-73
2023/07/20 07:15:01;;;;;;;0.52;0.52;;;18.10;99.90;;;;;;5056728;28;20693;-74
2023/07/20 07:17:26;;;;;;;0.40;0.40;;;18.10;99.90;;;;;;5061507;28;20051;-74
2023/07/20 07:19:54;;;;;;;0.50;0.50;;;18.50;99.90;;;;;;5052822;28;20040;-75
2023/07/20 07:22:21;;;;;;;0.40;0.40;;;18.90;99.90;;;;;;5049827;28;20312;-74
2023/07/20 07:24:47;;;;;;;0.40;0.40;;;18.70;99.90;;;;;;5054354;28;20404;-74
2023/07/20 07:27:13;;;;;;;0.65;0.65;;;19.30;99.90;;;;;;5055195;28;20053;-75
2023/07/20 07:29:38;;;;;;;0.50;0.50;;;19.20;99.90;;;;;;5057086;28;20033;-74
2023/07/20 07:32:05;;;;;;;0.38;0.38;;;19.70;99.90;;;;;;5060319;28;20056;-74
2023/07/20 07:34:34;;;;;;;0.40;0.40;;;19.50;99.90;;;;;;5056267;28;20556;-74
2023/07/20 07:37:00;;;;;;;0.47;0.47;;;19.70;99.90;;;;;;5052797;28;20040;-74
2023/07/20 07:39:26;;;;;;;0.40;0.40;;;20.10;99.90;;;;;;5042667;28;20040;-73
2023/07/20 07:41:51;;;;;;;0.30;0.30;;;20.10;99.90;;;;;;5054288;28;20048;-74
2023/07/20 07:44:18;;;;;;;0.55;0.55;;;20.70;99.90;;;;;;5065672;28;20506;-74
2023/07/20 07:46:43;;;;;;;0.45;0.45;;;20.50;99.90;;;;;;5068198;28;20040;-73
2023/07/20 07:49:09;;;;;;;0.50;0.50;;;20.80;99.90;;;;;;5055872;28;20037;-74
2023/07/20 07:51:35;;;;;;;0.40;0.40;;;21.20;99.90;;;;;;5057049;28;20455;-75
2023/07/20 07:54:01;;;;;;;0.40;0.40;;;20.90;99.90;;;;;;5060310;28;20040;-74
2023/07/20 07:56:26;;;;;;;0.70;0.70;;;21.20;99.90;;;;;;5062415;28;20136;-74
2023/07/20 07:58:52;;;;;;;0.70;0.70;;;20.80;99.90;;;;;;5061900;28;20116;-74
2023/07/20 08:01:21;;;;;;;0.60;0.60;;;20.80;99.90;;;;;;5060861;28;20044;-74
2023/07/20 08:03:47;;;;;;;0.40;0.40;;;20.60;99.90;;;;;;5067074;28;20422;-74
2023/07/20 08:06:16;;;;;;;0.30;0.30;;;20.70;99.90;;;;;;5052889;28;20115;-74
2023/07/20 08:08:44;;;;;;;0.30;0.30;;;20.90;99.90;;;;;;5066932;28;20079;-74
2023/07/20 08:11:10;;;;;;;0.93;0.40;;;21.10;99.90;;;;;;5055433;28;20124;-74
2023/07/20 08:13:36;;;;;;;0.40;0.40;;;21.00;99.90;;;;;;5059963;28;20460;-74
2023/07/20 08:16:02;;;;;;;0.32;0.32;;;21.40;99.90;;;;;;5061709;28;20120;-74
2023/07/20 08:18:28;;;;;;;0.40;0.40;;;21.40;99.90;;;;;;5055250;28;20116;-74
2023/07/20 08:24:35;;;;;;;0.40;0.40;;;22.20;99.90;;;;;;5056590;28;20135;-73
2023/07/20 08:27:00;;;;;;;0.30;0.30;;;22.20;99.90;;;;;;5037179;28;20524;-73
2023/07/20 08:29:26;;;;;;;0.30;0.30;;;22.50;99.90;;;;;;5060365;28;20402;-73
2023/07/20 08:31:51;;;;;;;0.30;0.30;;;22.30;99.90;;;;;;5059489;28;20040;-73
2023/07/20 08:34:17;;;;;;;0.30;0.30;;;22.40;99.90;;;;;;5062791;28;20630;-74
2023/07/20 08:36:43;;;;;;;0.30;0.30;;;22.60;99.90;;;;;;5037709;28;20067;-74
2023/07/20 08:39:08;;;;;;;0.20;0.20;;;22.90;99.90;;;;;;5056046;28;20052;-72
2023/07/20 08:41:35;;;;;;;0.35;0.35;;;22.70;99.90;;;;;;5057296;28;20040;-71
2023/07/20 08:44:01;;;;;;;0.30;0.30;;;22.90;99.90;;;;;;5050590;28;20426;-71
2023/07/20 08:46:28;;;;;;;0.30;0.30;;;23.40;99.90;;;;;;5067223;28;20097;-72
2023/07/20 08:48:56;;;;;;;0.60;0.60;;;23.30;99.90;;;;;;5058706;28;20427;-72
2023/07/20 08:51:22;;;;;;;;;;;23.70;99.90;;;;;;5067660;28;20106;-72
2023/07/20 08:53:49;;;;;;;0.32;0.32;;;23.60;99.90;;;;;;5056691;28;19916;-73
2023/07/20 08:56:16;;;;;;;0.73;0.52;;;23.70;99.90;;;;;;5040777;28;20559;-72
2023/07/20 08:58:43;;;;;;;0.40;0.40;;;23.70;99.90;;;;;;5063643;28;20115;-73
2023/07/20 09:01:10;;;;;;;0.30;0.30;;;23.80;99.90;;;;;;5062018;28;20045;-73
2023/07/20 09:03:39;;;;;;;0.50;0.50;;;23.80;99.90;;;;;;5064180;28;20079;-73
2023/07/20 09:06:05;;;;;;;0.30;0.30;;;24.00;99.90;;;;;;5047589;28;20130;-73
2023/07/20 09:08:31;;;;;;;0.40;0.40;;;24.10;99.90;;;;;;5055867;28;20040;-72
2023/07/20 09:10:57;;;;;;;0.30;0.30;;;24.40;99.90;;;;;;5048806;28;20420;-73
2023/07/20 09:13:25;;;;;;;0.40;0.40;;;24.40;99.90;;;;;;5048798;28;20038;-73
2023/07/20 09:15:54;;;;;;;0.40;0.40;;;24.50;99.90;;;;;;5049930;28;20047;-73
2023/07/20 09:18:28;;;;;;;0.40;0.40;;;24.60;99.90;;;;;;5049768;28;20776;-72
2023/07/20 09:21:06;;;;;;;0.30;0.30;;;24.50;99.90;;;;;;5059034;28;20041;-73
2023/07/20 09:23:32;;;;;;;;;;;24.50;99.90;;;;;;5049898;28;20516;-72
2023/07/20 09:25:58;;;;;;;0.60;0.60;;;24.50;99.90;;;;;;5064559;28;20298;-74
2023/07/20 09:28:24;;;;;;;0.95;0.70;;;24.70;99.90;;;;;;5046383;28;20033;-73
2023/07/20 09:30:50;;;;;;;0.77;0.77;;;24.70;99.90;;;;;;5057389;28;20386;-73
2023/07/20 09:33:21;;;;;;;0.28;0.28;;;24.90;99.90;;;;;;5059286;28;20309;-73
2023/07/20 09:35:47;;;;;;;0.40;0.40;;;25.00;99.90;;;;;;5052380;28;20029;-72
2023/07/20 09:38:15;;;;;;;0.38;0.38;;;25.00;99.90;;;;;;5056742;28;20406;-72
2023/07/20 09:40:41;;;;;;;0.30;0.30;;;25.20;99.90;;;;;;5058370;28;20111;-71
2023/07/20 09:43:10;;;;;;;0.40;0.40;;;25.10;99.90;;;;;;5048726;28;20499;-73
2023/07/20 09:45:41;;;;;;;0.75;0.75;;;25.00;99.90;;;;;;5039575;28;20133;-72
2023/07/20 09:48:08;;;;;;;0.52;0.52;;;25.00;99.90;;;;;;5047478;28;20040;-72
2023/07/20 09:50:34;;;;;;;0.40;0.40;;;25.10;99.90;;;;;;5053413;28;20500;-72
2023/07/20 09:53:02;;;;;;;0.30;0.30;;;25.10;99.90;;;;;;5056332;28;20055;-72
2023/07/20 09:59:15;;;;;;;0.30;0.30;;;25.60;99.90;;;;;;5064118;28;20098;-71
2023/07/20 10:01:43;;;;;;;0.40;0.40;;;25.20;99.90;;;;;;5057604;28;20055;-73
2023/07/20 10:04:12;;;;;;;0.38;0.38;;;25.20;99.90;;;;;;5066386;28;20048;-73
2023/07/20 10:06:42;;;;;;;0.50;0.50;;;25.30;99.90;;;;;;5049061;28;20044;-75
2023/07/20 10:09:11;;;;;;;0.40;0.40;;;25.60;99.90;;;;;;5059747;28;20089;-75
2023/07/20 10:11:43;;;;;;;0.40;0.40;;;25.80;99.90;;;;;;5055755;28;20416;-75
2023/07/20 10:14:12;;;;;;;0.40;0.40;;;26.10;99.90;;;;;;5063918;28;20051;-75
2023/07/20 10:16:47;;;;;;;0.40;0.40;;;26.00;99.90;;;;;;5050031;28;20045;-74
2023/07/20 10:19:42;;;;;;;0.68;0.68;;;26.10;99.90;;;;;;5038425;28;20025;-75
2023/07/20 10:22:23;;;;;;;0.40;0.40;;;26.20;99.90;;;;;;5061098;28;20028;-74
2023/07/20 10:24:50;;;;;;;0.30;0.30;;;26.00;99.90;;;;;;5044043;28;20060;-74
2023/07/20 10:27:15;;;;;;;0.32;0.32;;;25.90;99.90;;;;;;5059362;28;20087;-73
2023/07/20 10:29:42;;;;;;;0.63;0.63;;;25.90;99.90;;;;;;5049898;28;20468;-74
2023/07/20 10:32:09;;;;;;;0.40;0.40;;;26.00;99.90;;;;;;5040650;28;20052;-73
2023/07/20 10:34:35;;;;;;;0.40;0.40;;;26.10;99.90;;;;;;5057563;28;20501;-73
2023/07/20 10:37:00;;;;;;;0.40;0.40;;;26.10;99.90;;;;;;5058925;28;20044;-72
2023/07/20 10:39:28;;;;;;;0.50;0.50;;;26.40;99.90;;;;;;5048062;28;20045;-73
2023/07/20 10:42:07;;;;;;;0.40;0.40;;;26.40;99.90;;;;;;5046488;28;20041;-73
2023/07/20 10:44:33;;;;;;;0.30;0.30;;;26.60;99.90;;;;;;5062083;28;20105;-73
2023/07/20 10:47:08;;;;;;;0.70;0.70;;;26.50;99.90;;;;;;5059631;28;20040;-73
2023/07/20 10:49:35;;;;;;;0.35;0.35;;;26.30;99.90;;;;;;5062881;28;20219;-73
2023/07/20 10:52:05;;;;;;;0.30;0.30;;;26.20;99.90;;;;;;5065665;28;20037;-73
2023/07/20 10:54:30;;;;;;;0.30;0.30;;;26.00;99.90;;;;;;5054176;28;20037;-73
2023/07/20 10:56:57;;;;;;;0.30;0.30;;;25.90;99.90;;;;;;5060919;28;20047;-72
2023/07/20 10:59:23;;;;;;;0.40;0.40;;;25.60;99.90;;;;;;5050708;28;20118;-72
2023/07/20 11:01:49;;;;;;;1.08;1.00;;;25.40;99.90;;;;;;5049372;28;20079;-73
2023/07/20 11:04:18;;;;;;;1.02;1.02;;;25.40;99.90;;;;;;5057063;28;20395;-73
2023/07/20 11:06:44;;;;;;;0.30;0.30;;;25.30;99.90;;;;;;5046484;28;20045;-73
2023/07/20 11:09:10;;;;;;;0.40;0.40;;;25.10;99.90;;;;;;5065407;28;20036;-73
2023/07/20 11:11:38;;;;;;;0.30;0.30;;;24.90;99.90;;;;;;5045275;28;20079;-73
2023/07/20 11:14:06;;;;;;;0.40;0.40;;;24.90;99.90;;;;;;5041382;28;20033;-74
2023/07/20 11:16:39;;;;;;;0.30;0.30;;;24.70;99.90;;;;;;5053357;28;20071;-72
2023/07/20 11:19:14;;;;;;;0.30;0.30;;;24.70;99.90;;;;;;5041003;28;20033;-74
2023/07/20 11:21:42;;;;;;;0.40;0.40;;;24.60;99.90;;;;;;5047668;28;20507;-74
2023/07/20 11:24:09;;;;;;;;;;;24.40;99.90;;;;;;5062318;28;20056;-74
2023/07/20 11:27:01;;;;;;;0.30;0.30;;;24.50;99.90;;;;;;5048579;28;19998;-74
2023/07/20 11:29:27;;;;;;;0.30;0.30;;;24.50;99.90;;;;;;5041884;28;20041;-73
2023/07/20 11:31:52;;;;;;;1.08;0.98;;;24.60;99.90;;;;;;5042319;28;20033;-73
2023/07/20 11:34:20;;;;;;;0.40;0.40;;;24.70;99.90;;;;;;5065196;28;20437;-72
2023/07/20 11:36:48;;;;;;;0.30;0.30;;;24.50;99.90;;;;;;5064990;28;20692;-73
2023/07/20 11:39:14;;;;;;;;;;;24.50;99.90;;;;;;5051098;28;20046;-73
2023/07/20 11:41:48;;;;;;;0.40;0.40;;;24.50;99.90;;;;;;5066514;28;19920;-73
2023/07/20 11:44:15;;;;;;;0.30;0.30;;;24.60;99.90;;;;;;5051874;28;20039;-73
2023/07/20 11:46:44;;;;;;;0.30;0.30;;;24.90;99.90;;;;;;5048095;28;20105;-73
2023/07/20 11:49:10;;;;;;;0.30;0.30;;;24.80;99.90;;;;;;5045539;28;20504;-73
2023/07/20 11:51:37;;;;;;;0.40;0.40;;;24.90;99.90;;;;;;5054408;28;20036;-74
2023/07/20 11:54:05;;;;;;;0.40;0.40;;;24.80;99.90;;;;;;5067454;28;20086;-74
2023/07/20 11:56:31;;;;;;;0.40;0.40;;;24.70;99.90;;;;;;5048292;28;20040;-74
2023/07/20 11:59:00;;;;;;;0.40;0.40;;;24.80;99.90;;;;;;5046563;28;20480;-74
2023/07/20 12:01:31;;;;;;;0.30;0.30;;;24.80;99.90;;;;;;5047282;28;20508;-75
2023/07/20 12:04:01;;;;;;;0.40;0.40;;;24.70;99.90;;;;;;5058958;28;20044;-74
2023/07/20 12:06:30;;;;;;;0.60;0.60;;;24.60;99.90;;;;;;5050050;28;20044;-75
2023/07/20 12:08:58;;;;;;;0.30;0.30;;;24.40;99.90;;;;;;5066989;28;20041;-73
2023/07/20 12:11:38;;;;;;;0.47;0.47;;;24.20;99.90;;;;;;5050667;28;20045;-74
2023/07/20 12:14:08;;;;;;;1.00;0.75;;;24.00;99.90;;;;;;5064632;28;20117;-73
2023/07/20 12:16:35;;;;;;;0.40;0.40;;;23.90;99.90;;;;;;5065209;28;20048;-71
2023/07/20 12:19:13;;;;;;;0.40;0.40;;;23.70;99.90;;;;;;5058270;28;20067;-73
2023/07/20 12:21:42;;;;;;;0.40;0.40;;;23.70;99.90;;;;;;5035399;28;20056;-72
2023/07/20 12:24:11;;;;;;;0.40;0.40;;;23.60;99.90;;;;;;5058124;28;20078;-74
2023/07/20 12:26:37;;;;;;;0.40;0.40;;;23.40;99.90;;;;;;5067649;28;20511;-74
2023/07/20 12:29:03;;;;;;;0.30;0.30;;;23.30;99.90;;;;;;5063907;28;20058;-74
2023/07/20 12:31:29;;;;;;;0.40;0.40;;;23.20;99.90;;;;;;5051561;28;20051;-72
2023/07/20 12:33:57;;;;;;;0.30;0.30;;;23.20;99.90;;;;;;5051849;28;20439;-74
2023/07/20 12:36:23;;;;;;;0.30;0.30;;;23.30;99.90;;;;;;5047368;28;20496;-74
2023/07/20 12:38:49;;;;;;;0.65;0.65;;;23.10;99.90;;;;;;5047084;28;20143;-71
2023/07/20 12:41:15;;;;;;;0.55;0.52;;;23.20;99.90;;;;;;5054133;28;20468;-74
2023/07/20 12:43:45;;;;;;;0.40;0.40;;;23.10;99.90;;;;;;5062241;28;20090;-74
2023/07/20 12:46:11;;;;;;;0.30;0.30;;;23.00;99.90;;;;;;5062914;28;20124;-73
2023/07/20 12:48:40;;;;;;;0.30;0.30;;;22.90;99.90;;;;;;5061109;28;20041;-74
2023/07/20 12:51:06;;;;;;;0.35;0.35;;;22.90;99.90;;;;;;5055643;28;20299;-74
2023/07/20 12:53:32;;;;;;;0.30;0.30;;;23.10;99.90;;;;;;5043114;28;20119;-74
2023/07/20 12:56:01;;;;;;;0.35;0.35;;;23.00;99.90;;;;;;5062805;28;20077;-74
2023/07/20 12:58:27;;;;;;;0.40;0.40;;;23.20;99.90;;;;;;5053135;28;20047;-74
2023/07/20 13:00:53;;;;;;;0.40;0.40;;;23.20;99.90;;;;;;5041917;28;20044;-74
2023/07/20 13:03:19;;;;;;;0.40;0.40;;;23.20;99.90;;;;;;5045951;28;20119;-74
2023/07/20 13:05:48;;;;;;;0.40;0.40;;;23.00;99.90;;;;;;5057723;28;20128;-73